Iris Victoria — V7TS8 — position and weather

sailwx.info

Track history (hours):
 
Tides and Currents Weather Stations Pressure Air Temp Water Temp Dewpoint Dewpoint Depression Visibility Wind Speed Wind Dir Waves Ship Positions

Iris Victoria

Last reported at 2017-Mar-17 09:12 UTC. Time now 2017-Mar-27 12:35 UTC.
Position N 01°15' E 104°06'.
Warning: this ship's position is 10 days out of date.

Length 228 m; draft 13 m.

Type: Tanker. MMSI: 538003876.

Date/timePositionNaut miles runAvg speedWind from/ knotsBaromVisibWave heightAir tempDewpointWater temp
2017-Mar-17 09:12N 01°15' E 104°06'711.2
2017-Mar-17 08:33N 01°14' E 103°59'1010.4
2017-Mar-17 07:33N 01°10' E 103°49'1010.3
2017-Mar-17 06:33N 01°03' E 103°41'9 9.5
2017-Mar-17 05:33N 01°08' E 103°33'9 8.6
2017-Mar-17 04:33N 01°11' E 103°41'1 1.1
2017-Mar-17 03:29N 01°11' E 103°42'0 0.0
2017-Mar-17 02:23N 01°11' E 103°42'0 0.0
2017-Mar-17 01:34N 01°11' E 103°42'0 0.1
2017-Mar-17 00:34N 01°11' E 103°42'0 0.2
2017-Mar-16 23:34N 01°11' E 103°42'0 0.1
2017-Mar-16 22:34N 01°11' E 103°42'0 0.1
2017-Mar-16 21:34N 01°11' E 103°42'0 0.0
2017-Mar-16 20:34N 01°11' E 103°42'0 0.1
2017-Mar-16 19:33N 01°11' E 103°42'0 0.1
2017-Mar-16 18:33N 01°11' E 103°42'3 3.0
2017-Mar-16 17:33N 01°14' E 103°42'3 3.4
2017-Mar-16 16:34N 01°17' E 103°43'0 0.0
2017-Mar-16 15:34N 01°17' E 103°43'0 0.0
2017-Mar-16 14:34N 01°18' E 103°43'0 0.1
2017-Mar-16 13:33N 01°17' E 103°43'0 0.1
2017-Mar-16 12:34N 01°18' E 103°43'0 0.0
2017-Mar-16 11:34N 01°18' E 103°43'0 0.0
2017-Mar-16 10:33N 01°17' E 103°43'0 0.1
2017-Mar-16 09:33N 01°18' E 103°43'0 0.0
2017-Mar-16 08:34N 01°18' E 103°43'0 0.1
2017-Mar-16 07:33N 01°17' E 103°43'0 0.0
2017-Mar-16 06:34N 01°17' E 103°43'0 0.0
2017-Mar-16 05:34N 01°17' E 103°43'0 0.1
2017-Mar-16 04:33N 01°17' E 103°43'0 0.1
2017-Mar-16 03:33N 01°17' E 103°43'0 0.0
2017-Mar-16 02:33N 01°18' E 103°43'0 0.1
2017-Mar-16 01:34N 01°17' E 103°43'0 0.1
2017-Mar-16 00:33N 01°18' E 103°43'0 0.0
2017-Mar-15 23:34N 01°18' E 103°43'0 0.0
2017-Mar-15 22:33N 01°18' E 103°43'0 0.0
2017-Mar-15 21:33N 01°17' E 103°43'0 0.0
2017-Mar-15 20:34N 01°17' E 103°43'0 0.1
2017-Mar-15 19:34N 01°17' E 103°43'0 0.1
2017-Mar-15 18:34N 01°18' E 103°43'3 3.0
2017-Mar-15 17:32N 01°15' E 103°44'4 4.4
2017-Mar-15 16:33N 01°12' E 103°41'1 0.7
2017-Mar-15 15:33N 01°12' E 103°40'6 6.2
2017-Mar-15 14:34N 01°11' E 103°34'9 8.8
2017-Mar-15 13:34N 01°12' E 103°25'8 7.9
2017-Mar-15 12:32N 01°17' E 103°19'2311.2
2017-Mar-15 10:28N 01°30' E 103°00'1011.0
2017-Mar-15 09:32N 01°36' E 102°52'1111.1
2017-Mar-15 08:33N 01°41' E 102°42'1111.0
2017-Mar-15 07:33N 01°46' E 102°32'1311.5
2017-Mar-15 06:23N 01°51' E 102°20'3612.2
2017-Mar-15 03:25N 02°14' E 101°51'  
Track history (hours):
 
Tides and Currents Weather Stations Pressure Air Temp Water Temp Dewpoint Dewpoint Depression Visibility Wind Speed Wind Dir Waves Ship Positions

Iris Victoria

Last reported at 2017-Mar-17 09:12 UTC. Time now 2017-Mar-27 12:35 UTC.
Position N 01°15' E 104°06'.
Warning: this ship's position is 10 days out of date.

Length 228 m; draft 13 m.

Type: Tanker. MMSI: 538003876.

Date/timePositionNaut miles runAvg speedWind from/ knotsBaromVisibWave heightAir tempDewpointWater temp
2017-Mar-17 09:12N 01°15' E 104°06'711.2
2017-Mar-17 08:33N 01°14' E 103°59'1010.4
2017-Mar-17 07:33N 01°10' E 103°49'1010.3
2017-Mar-17 06:33N 01°03' E 103°41'9 9.5
2017-Mar-17 05:33N 01°08' E 103°33'9 8.6
2017-Mar-17 04:33N 01°11' E 103°41'1 1.1
2017-Mar-17 03:29N 01°11' E 103°42'0 0.0
2017-Mar-17 02:23N 01°11' E 103°42'0 0.0
2017-Mar-17 01:34N 01°11' E 103°42'0 0.1
2017-Mar-17 00:34N 01°11' E 103°42'0 0.2
2017-Mar-16 23:34N 01°11' E 103°42'0 0.1
2017-Mar-16 22:34N 01°11' E 103°42'0 0.1
2017-Mar-16 21:34N 01°11' E 103°42'0 0.0
2017-Mar-16 20:34N 01°11' E 103°42'0 0.1
2017-Mar-16 19:33N 01°11' E 103°42'0 0.1
2017-Mar-16 18:33N 01°11' E 103°42'3 3.0
2017-Mar-16 17:33N 01°14' E 103°42'3 3.4
2017-Mar-16 16:34N 01°17' E 103°43'0 0.0
2017-Mar-16 15:34N 01°17' E 103°43'0 0.0
2017-Mar-16 14:34N 01°18' E 103°43'0 0.1
2017-Mar-16 13:33N 01°17' E 103°43'0 0.1
2017-Mar-16 12:34N 01°18' E 103°43'0 0.0
2017-Mar-16 11:34N 01°18' E 103°43'0 0.0
2017-Mar-16 10:33N 01°17' E 103°43'0 0.1
2017-Mar-16 09:33N 01°18' E 103°43'0 0.0
2017-Mar-16 08:34N 01°18' E 103°43'0 0.1
2017-Mar-16 07:33N 01°17' E 103°43'0 0.0
2017-Mar-16 06:34N 01°17' E 103°43'0 0.0
2017-Mar-16 05:34N 01°17' E 103°43'0 0.1
2017-Mar-16 04:33N 01°17' E 103°43'0 0.1
2017-Mar-16 03:33N 01°17' E 103°43'0 0.0
2017-Mar-16 02:33N 01°18' E 103°43'0 0.1
2017-Mar-16 01:34N 01°17' E 103°43'0 0.1
2017-Mar-16 00:33N 01°18' E 103°43'0 0.0
2017-Mar-15 23:34N 01°18' E 103°43'0 0.0
2017-Mar-15 22:33N 01°18' E 103°43'0 0.0
2017-Mar-15 21:33N 01°17' E 103°43'0 0.0
2017-Mar-15 20:34N 01°17' E 103°43'0 0.1
2017-Mar-15 19:34N 01°17' E 103°43'0 0.1
2017-Mar-15 18:34N 01°18' E 103°43'3 3.0
2017-Mar-15 17:32N 01°15' E 103°44'4 4.4
2017-Mar-15 16:33N 01°12' E 103°41'1 0.7
2017-Mar-15 15:33N 01°12' E 103°40'6 6.2
2017-Mar-15 14:34N 01°11' E 103°34'9 8.8
2017-Mar-15 13:34N 01°12' E 103°25'8 7.9
2017-Mar-15 12:32N 01°17' E 103°19'2311.2
2017-Mar-15 10:28N 01°30' E 103°00'1011.0
2017-Mar-15 09:32N 01°36' E 102°52'1111.1
2017-Mar-15 08:33N 01°41' E 102°42'1111.0
2017-Mar-15 07:33N 01°46' E 102°32'1311.5
2017-Mar-15 06:23N 01°51' E 102°20'3612.2
2017-Mar-15 03:25N 02°14' E 101°51'  

Dump ship's entire track history